createdAt,value
2018-11-28T00:00:17.137Z,-0.90
2018-11-28T00:02:45.770Z,-0.90
2018-11-28T00:05:14.383Z,-0.90
2018-11-28T00:07:43.027Z,-0.90
2018-11-28T00:10:13.397Z,-0.80
2018-11-28T00:12:42.195Z,-0.70
2018-11-28T00:15:12.893Z,-0.60
2018-11-28T00:17:41.575Z,-0.60
2018-11-28T00:20:12.239Z,-0.40
2018-11-28T00:22:40.876Z,-0.40
2018-11-28T00:25:10.295Z,-0.30
2018-11-28T00:27:38.964Z,-0.20
2018-11-28T00:30:16.166Z,-0.10
2018-11-28T00:32:44.892Z,0.00
2018-11-28T00:35:16.064Z,0.10
2018-11-28T00:37:44.705Z,0.10
2018-11-28T00:40:14.154Z,0.20
2018-11-28T00:42:42.878Z,0.20
2018-11-28T00:45:15.630Z,0.20
2018-11-28T00:47:44.267Z,0.30
2018-11-28T00:50:13.930Z,0.30
2018-11-28T00:52:42.568Z,0.40
2018-11-28T00:55:14.113Z,0.40
2018-11-28T00:57:42.744Z,0.50
2018-11-28T01:00:16.414Z,0.50
2018-11-28T01:02:45.202Z,0.60
2018-11-28T01:05:14.135Z,0.60
2018-11-28T01:07:43.256Z,0.70
2018-11-28T01:10:13.745Z,0.80
2018-11-28T01:12:42.391Z,0.80
2018-11-28T01:15:12.246Z,0.90
2018-11-28T01:17:40.906Z,1.00
2018-11-28T01:20:13.437Z,1.00
2018-11-28T01:22:42.111Z,1.00
2018-11-28T01:25:11.691Z,1.00
2018-11-28T01:27:40.405Z,1.00
2018-11-28T01:30:13.022Z,1.00
2018-11-28T01:32:41.680Z,1.00
2018-11-28T01:35:11.997Z,1.00
2018-11-28T01:37:40.934Z,1.00
2018-11-28T01:40:12.073Z,1.00
2018-11-28T01:42:40.695Z,1.10
2018-11-28T01:45:10.719Z,1.20
2018-11-28T01:47:39.351Z,1.30
2018-11-28T01:50:10.344Z,1.20
2018-11-28T01:52:39.212Z,1.20
2018-11-28T01:55:12.748Z,1.30
2018-11-28T01:57:41.497Z,1.30
2018-11-28T02:00:17.132Z,1.30
2018-11-28T02:02:46.045Z,1.30
2018-11-28T02:05:14.715Z,1.30
2018-11-28T02:07:43.374Z,1.30
2018-11-28T02:10:13.744Z,1.30
2018-11-28T02:12:42.513Z,1.30
2018-11-28T02:15:17.152Z,1.30
2018-11-28T02:17:45.885Z,1.30
2018-11-28T02:20:16.389Z,1.40
2018-11-28T02:22:45.304Z,1.40
2018-11-28T02:25:16.604Z,1.30
2018-11-28T02:27:45.554Z,1.40
2018-11-28T02:30:18.065Z,1.30
2018-11-28T02:32:47.259Z,1.30
2018-11-28T02:35:16.324Z,1.40
2018-11-28T02:37:44.999Z,1.30
2018-11-28T02:40:15.533Z,1.30
2018-11-28T02:42:44.384Z,1.30
2018-11-28T02:45:15.766Z,1.30
2018-11-28T02:47:44.481Z,1.30
2018-11-28T02:50:13.154Z,1.30
2018-11-28T02:52:41.778Z,1.30
2018-11-28T02:55:12.297Z,1.30
2018-11-28T02:57:41.524Z,1.30
2018-11-28T03:00:19.677Z,1.30
2018-11-28T03:02:48.303Z,1.30
2018-11-28T03:05:16.912Z,1.30
2018-11-28T03:07:45.576Z,1.20
2018-11-28T03:10:15.395Z,1.20
2018-11-28T03:12:44.078Z,1.20
2018-11-28T03:15:18.144Z,1.20
2018-11-28T03:17:46.801Z,1.10
2018-11-28T03:20:15.408Z,1.10
2018-11-28T03:22:44.060Z,1.10
2018-11-28T03:25:12.728Z,1.10
2018-11-28T03:27:41.355Z,1.10
2018-11-28T03:30:15.613Z,1.00
2018-11-28T03:32:44.316Z,1.00
2018-11-28T03:35:14.053Z,0.90
2018-11-28T03:37:42.783Z,0.90
2018-11-28T03:40:11.652Z,0.90
2018-11-28T03:42:40.474Z,0.80
2018-11-28T03:45:11.447Z,0.80
2018-11-28T03:47:40.193Z,0.80
2018-11-28T03:50:10.019Z,0.80
2018-11-28T03:52:39.198Z,0.80
2018-11-28T03:55:09.924Z,0.80
2018-11-28T03:57:38.537Z,0.70
2018-11-28T04:00:15.188Z,0.70
2018-11-28T04:02:45.568Z,0.70
2018-11-28T04:05:14.339Z,0.70
2018-11-28T04:07:43.005Z,0.70
2018-11-28T04:10:12.605Z,0.70
2018-11-28T04:12:41.813Z,0.70
2018-11-28T04:15:22.235Z,0.70
2018-11-28T04:17:50.904Z,0.70
2018-11-28T04:20:20.471Z,0.70
2018-11-28T04:22:49.143Z,0.70
2018-11-28T04:25:18.839Z,0.60
2018-11-28T04:27:47.474Z,0.60
2018-11-28T04:30:21.141Z,0.70
2018-11-28T04:32:50.228Z,0.70
2018-11-28T04:35:18.856Z,0.70
2018-11-28T04:37:47.615Z,0.60
2018-11-28T04:40:18.132Z,0.60
2018-11-28T04:42:47.360Z,0.60
2018-11-28T04:45:23.496Z,0.70
2018-11-28T04:47:53.027Z,0.70
2018-11-28T04:50:21.661Z,0.70
2018-11-28T04:52:50.319Z,0.70
2018-11-28T04:55:19.708Z,0.70
2018-11-28T04:57:48.613Z,0.70
2018-11-28T05:00:25.210Z,0.70
2018-11-28T05:02:55.052Z,0.70
2018-11-28T05:05:23.732Z,0.70
2018-11-28T05:07:53.199Z,0.70
2018-11-28T05:10:28.015Z,0.70
2018-11-28T05:12:57.316Z,0.70
2018-11-28T05:15:27.067Z,0.70
2018-11-28T05:17:55.782Z,0.70
2018-11-28T05:20:26.301Z,0.70
2018-11-28T05:22:54.973Z,0.70
2018-11-28T05:25:25.588Z,0.80
2018-11-28T05:27:55.162Z,0.80
2018-11-28T05:30:25.640Z,0.80
2018-11-28T05:32:54.293Z,0.80
2018-11-28T05:35:29.400Z,0.70
2018-11-28T05:37:58.121Z,0.80
2018-11-28T05:40:28.353Z,0.70
2018-11-28T05:42:57.244Z,0.80
2018-11-28T05:45:25.884Z,0.80
2018-11-28T05:47:54.531Z,0.80
2018-11-28T05:50:23.311Z,0.80
2018-11-28T05:52:52.044Z,0.80
2018-11-28T05:55:22.546Z,0.80
2018-11-28T05:57:51.299Z,0.80
2018-11-28T06:00:32.003Z,0.80
2018-11-28T06:03:00.627Z,0.70
2018-11-28T06:05:29.261Z,0.80
2018-11-28T06:07:57.944Z,0.80
2018-11-28T06:10:26.600Z,0.80
2018-11-28T06:12:55.202Z,0.80
2018-11-28T06:15:23.875Z,0.90
2018-11-28T06:17:52.522Z,0.80
2018-11-28T06:20:21.200Z,0.70
2018-11-28T06:22:49.874Z,0.60
2018-11-28T06:25:18.496Z,0.60
2018-11-28T06:27:47.147Z,0.50
2018-11-28T06:30:16.932Z,0.40
2018-11-28T06:32:51.014Z,0.30
2018-11-28T06:35:14.439Z,0.10
2018-11-28T06:37:43.321Z,0.00
2018-11-28T06:40:16.520Z,0.00
2018-11-28T06:42:47.222Z,-0.10
2018-11-28T06:45:19.211Z,-0.20
2018-11-28T06:47:48.250Z,-0.20
2018-11-28T06:50:17.683Z,-0.30
2018-11-28T06:52:47.491Z,-0.40
2018-11-28T06:55:17.145Z,-0.40
2018-11-28T06:57:45.777Z,-0.40
2018-11-28T07:00:22.976Z,-0.40
2018-11-28T07:02:52.593Z,-0.50
2018-11-28T07:05:21.705Z,-0.60
2018-11-28T07:07:50.501Z,-0.60
2018-11-28T07:10:19.866Z,-0.60
2018-11-28T07:12:48.585Z,-0.70
2018-11-28T07:15:18.224Z,-0.70
2018-11-28T07:17:46.915Z,-0.70
2018-11-28T07:20:16.228Z,-0.60
2018-11-28T07:22:45.268Z,-0.50
2018-11-28T07:25:16.575Z,-0.50
2018-11-28T07:27:46.026Z,-0.40
2018-11-28T07:30:21.474Z,-0.30
2018-11-28T07:32:55.218Z,-0.20
2018-11-28T07:35:24.345Z,0.00
2018-11-28T07:37:52.961Z,0.10
2018-11-28T07:40:24.655Z,0.10
2018-11-28T07:42:57.152Z,0.10
2018-11-28T07:45:25.799Z,0.10
2018-11-28T07:47:54.484Z,0.10
2018-11-28T07:50:23.090Z,0.30
2018-11-28T07:52:51.740Z,0.30
2018-11-28T07:55:20.369Z,0.30
2018-11-28T07:57:49.006Z,0.40
2018-11-28T08:00:17.683Z,0.40
2018-11-28T08:02:46.311Z,0.50
2018-11-28T08:05:15.000Z,0.50
2018-11-28T08:07:43.660Z,0.50
2018-11-28T08:10:18.643Z,0.60
2018-11-28T08:12:47.559Z,0.60
2018-11-28T08:15:16.191Z,0.60
2018-11-28T08:17:44.799Z,0.70
2018-11-28T08:20:13.581Z,0.90
2018-11-28T08:22:42.240Z,0.90
2018-11-28T08:25:13.163Z,1.10
2018-11-28T08:27:42.379Z,1.10
2018-11-28T08:30:14.431Z,1.20
2018-11-28T08:32:43.089Z,1.20
2018-11-28T08:35:12.330Z,1.40
2018-11-28T08:37:40.943Z,1.40
2018-11-28T08:40:12.783Z,1.40
2018-11-28T08:42:41.518Z,1.40
2018-11-28T08:45:14.364Z,1.50
2018-11-28T08:47:43.216Z,1.50
2018-11-28T08:50:14.438Z,1.60
2018-11-28T08:52:43.076Z,1.70
2018-11-28T08:55:12.614Z,1.80
2018-11-28T08:57:41.279Z,1.80
2018-11-28T09:00:17.751Z,1.80
2018-11-28T09:02:47.357Z,1.90
2018-11-28T09:05:16.072Z,1.90
2018-11-28T09:07:44.692Z,1.90
2018-11-28T09:10:20.301Z,1.90
2018-11-28T09:12:49.582Z,1.90
2018-11-28T09:15:27.768Z,1.90
2018-11-28T09:17:56.757Z,1.80
2018-11-28T09:20:25.451Z,1.80
2018-11-28T09:22:54.191Z,1.90
2018-11-28T09:25:22.860Z,2.10
2018-11-28T09:27:55.679Z,2.20
2018-11-28T09:30:24.312Z,2.10
2018-11-28T09:32:53.024Z,2.20
2018-11-28T09:35:21.660Z,2.40
2018-11-28T09:37:50.307Z,2.40
2018-11-28T09:40:21.900Z,2.50
2018-11-28T09:42:51.423Z,2.70
2018-11-28T09:45:20.423Z,2.60
2018-11-28T09:47:49.145Z,2.50
2018-11-28T09:50:18.641Z,2.40
2018-11-28T09:52:47.336Z,2.40
2018-11-28T09:55:16.955Z,2.40
2018-11-28T09:57:45.606Z,2.40
2018-11-28T10:00:19.292Z,2.50
2018-11-28T10:02:48.380Z,2.60
2018-11-28T10:05:21.060Z,2.70
2018-11-28T10:07:49.763Z,2.70
2018-11-28T10:10:18.421Z,2.70
2018-11-28T10:12:47.028Z,2.70
2018-11-28T10:15:16.625Z,2.70
2018-11-28T10:17:45.319Z,2.80
2018-11-28T10:20:14.736Z,2.90
2018-11-28T10:22:43.631Z,2.90
2018-11-28T10:25:14.239Z,3.00
2018-11-28T10:27:43.503Z,3.00
2018-11-28T10:30:29.299Z,3.00
2018-11-28T10:32:57.848Z,3.10
2018-11-28T10:35:26.484Z,3.20
2018-11-28T10:37:55.127Z,3.20
2018-11-28T10:40:24.356Z,3.20
2018-11-28T10:42:54.916Z,3.30
2018-11-28T10:45:24.532Z,3.40
2018-11-28T10:47:53.211Z,3.50
2018-11-28T10:50:21.915Z,3.60
2018-11-28T10:52:50.555Z,3.80
2018-11-28T10:55:20.104Z,4.00
2018-11-28T10:57:48.776Z,3.90
2018-11-28T11:00:37.923Z,3.80
2018-11-28T11:03:12.519Z,3.80
2018-11-28T11:05:46.360Z,3.70
2018-11-28T11:08:20.388Z,3.60
2018-11-28T11:10:54.199Z,3.70
2018-11-28T11:13:27.957Z,3.70
2018-11-28T11:15:57.332Z,3.70
2018-11-28T11:18:26.584Z,3.70
2018-11-28T11:20:55.342Z,3.80
2018-11-28T11:23:24.133Z,3.80
2018-11-28T11:25:53.260Z,4.00
2018-11-28T11:28:21.941Z,4.10
2018-11-28T11:30:50.815Z,4.10
2018-11-28T11:33:19.592Z,4.00
2018-11-28T11:35:48.256Z,4.00
2018-11-28T11:38:16.904Z,3.90
2018-11-28T11:40:45.547Z,3.90
2018-11-28T11:43:14.204Z,3.90
2018-11-28T11:45:42.829Z,3.90
2018-11-28T11:48:11.468Z,4.00
2018-11-28T11:50:40.115Z,4.10
2018-11-28T11:53:08.831Z,3.90
2018-11-28T11:55:37.762Z,4.00
2018-11-28T11:58:06.844Z,4.00
2018-11-28T12:00:36.356Z,4.00
2018-11-28T12:03:10.263Z,4.00
2018-11-28T12:05:39.904Z,4.10
2018-11-28T12:08:08.717Z,4.20
2018-11-28T12:10:37.367Z,4.40
2018-11-28T12:13:06.355Z,4.50
2018-11-28T12:15:35.743Z,4.60
2018-11-28T12:18:03.792Z,4.70
2018-11-28T12:20:35.267Z,4.90
2018-11-28T12:23:03.956Z,5.00
2018-11-28T12:25:32.597Z,5.10
2018-11-28T12:28:01.214Z,5.20
2018-11-28T12:30:29.872Z,5.30
2018-11-28T12:32:58.489Z,5.30
2018-11-28T12:35:27.360Z,5.10
2018-11-28T12:37:55.882Z,4.80
2018-11-28T12:40:24.529Z,4.70
2018-11-28T12:42:53.448Z,4.50
2018-11-28T12:45:22.299Z,4.40
2018-11-28T12:47:50.977Z,4.30
2018-11-28T12:50:24.742Z,4.30
2018-11-28T12:52:55.231Z,4.30
2018-11-28T12:55:25.118Z,4.30
2018-11-28T12:57:53.769Z,4.30
2018-11-28T13:00:23.580Z,4.30
2018-11-28T13:02:52.196Z,4.10
2018-11-28T13:05:21.956Z,4.10
2018-11-28T13:07:50.688Z,4.10
2018-11-28T13:10:26.476Z,4.30
2018-11-28T13:12:55.425Z,4.40
2018-11-28T13:15:25.024Z,4.50
2018-11-28T13:17:53.671Z,4.50
2018-11-28T13:20:22.580Z,4.60
2018-11-28T13:22:52.224Z,4.60
2018-11-28T13:25:22.331Z,4.60
2018-11-28T13:27:51.214Z,4.50
2018-11-28T13:30:20.596Z,4.40
2018-11-28T13:32:49.995Z,4.40
2018-11-28T13:35:21.943Z,4.30
2018-11-28T13:37:55.999Z,4.20
2018-11-28T13:40:25.970Z,4.20
2018-11-28T13:42:54.600Z,4.10
2018-11-28T13:45:26.851Z,4.10
2018-11-28T13:48:03.153Z,4.00
2018-11-28T13:50:32.093Z,4.00
2018-11-28T13:53:02.339Z,4.00
2018-11-28T13:55:40.169Z,4.00
2018-11-28T13:58:03.594Z,4.00
2018-11-28T14:00:35.650Z,4.00
2018-11-28T14:03:26.743Z,3.90
2018-11-28T14:05:55.407Z,4.00
2018-11-28T14:08:24.037Z,3.90
2018-11-28T14:10:52.833Z,3.80
2018-11-28T14:13:21.421Z,3.70
2018-11-28T14:15:50.050Z,3.60
2018-11-28T14:18:19.744Z,3.60
2018-11-28T14:20:48.395Z,3.60
2018-11-28T14:23:16.994Z,3.60
2018-11-28T14:25:45.622Z,3.60
2018-11-28T14:28:15.602Z,3.50
2018-11-28T14:30:44.951Z,3.40
2018-11-28T14:33:13.975Z,3.30
2018-11-28T14:35:42.619Z,3.30
2018-11-28T14:38:11.303Z,3.20
2018-11-28T14:40:39.920Z,3.20
2018-11-28T14:43:08.733Z,3.10
2018-11-28T14:45:37.599Z,3.10
2018-11-28T14:48:06.265Z,3.10
2018-11-28T14:50:34.982Z,3.00
2018-11-28T14:53:04.133Z,3.00
2018-11-28T14:55:37.145Z,2.90
2018-11-28T14:58:06.710Z,2.80
2018-11-28T15:00:35.355Z,2.70
2018-11-28T15:03:11.316Z,2.60
2018-11-28T15:06:18.630Z,2.60
2018-11-28T15:08:47.274Z,2.50
2018-11-28T15:11:16.025Z,2.50
2018-11-28T15:13:44.817Z,2.50
2018-11-28T15:16:13.480Z,2.40
2018-11-28T15:18:42.188Z,2.40
2018-11-28T15:21:11.487Z,2.30
2018-11-28T15:23:40.660Z,2.20
2018-11-28T15:26:09.333Z,2.20
2018-11-28T15:28:38.014Z,2.20
2018-11-28T15:31:06.660Z,2.20
2018-11-28T15:33:35.337Z,2.10
2018-11-28T15:36:04.029Z,2.10
2018-11-28T15:38:32.701Z,2.00
2018-11-28T15:41:01.335Z,2.00
2018-11-28T15:43:29.994Z,2.00
2018-11-28T15:45:58.618Z,2.00
2018-11-28T15:48:27.255Z,2.10
2018-11-28T15:50:55.879Z,1.90
2018-11-28T15:53:24.558Z,1.70
2018-11-28T15:55:53.179Z,1.60
2018-11-28T15:58:21.817Z,1.50
2018-11-28T16:00:50.496Z,1.50
2018-11-28T16:03:19.199Z,1.50
2018-11-28T16:05:47.831Z,1.40
2018-11-28T16:08:16.564Z,1.40
2018-11-28T16:10:45.272Z,1.40
2018-11-28T16:13:15.425Z,1.30
2018-11-28T16:15:54.549Z,1.30
2018-11-28T16:18:35.773Z,1.30
2018-11-28T16:21:04.473Z,1.30
2018-11-28T16:23:33.116Z,1.20
2018-11-28T16:26:01.762Z,1.20
2018-11-28T16:28:30.495Z,1.20
2018-11-28T16:30:59.123Z,1.20
2018-11-28T16:33:27.763Z,1.10
2018-11-28T16:35:56.390Z,1.10
2018-11-28T16:38:25.022Z,1.10
2018-11-28T16:40:53.644Z,1.10
2018-11-28T16:43:22.331Z,1.10
2018-11-28T16:45:50.969Z,1.10
2018-11-28T16:48:19.606Z,1.00
2018-11-28T16:50:48.216Z,1.00
2018-11-28T16:53:16.858Z,0.90
2018-11-28T16:55:45.498Z,0.90
2018-11-28T16:58:14.157Z,0.90
2018-11-28T17:00:44.168Z,0.80
2018-11-28T17:03:12.849Z,0.80
2018-11-28T17:05:41.501Z,0.70
2018-11-28T17:08:10.383Z,0.70
2018-11-28T17:10:39.002Z,0.80
2018-11-28T17:13:14.590Z,0.70
2018-11-28T17:15:43.209Z,0.70
2018-11-28T17:18:11.836Z,0.60
2018-11-28T17:20:42.191Z,0.60
2018-11-28T17:23:10.933Z,0.60
2018-11-28T17:25:39.607Z,0.50
2018-11-28T17:28:08.294Z,0.50
2018-11-28T17:30:37.133Z,0.50
2018-11-28T17:33:06.275Z,0.50
2018-11-28T17:35:34.907Z,0.50
2018-11-28T17:38:03.607Z,0.40
2018-11-28T17:40:32.216Z,0.40
2018-11-28T17:43:01.344Z,0.40
2018-11-28T17:45:30.356Z,0.40
2018-11-28T17:47:59.038Z,0.40
2018-11-28T17:50:27.962Z,0.40
2018-11-28T17:53:14.284Z,0.40
2018-11-28T17:55:46.249Z,0.40
2018-11-28T17:58:15.315Z,0.40
2018-11-28T18:00:44.000Z,0.40
2018-11-28T18:03:12.632Z,0.40
2018-11-28T18:05:41.271Z,0.40
2018-11-28T18:08:09.918Z,0.40
2018-11-28T18:10:38.572Z,0.30
2018-11-28T18:13:14.652Z,0.30
2018-11-28T18:15:48.528Z,0.30
2018-11-28T18:18:18.534Z,0.30
2018-11-28T18:20:50.224Z,0.20
2018-11-28T18:23:15.914Z,0.20
2018-11-28T18:25:45.184Z,0.20
2018-11-28T18:28:13.834Z,0.20
2018-11-28T18:30:42.456Z,0.20
2018-11-28T18:33:12.208Z,0.20
2018-11-28T18:35:40.880Z,0.10
2018-11-28T18:38:09.545Z,0.10
2018-11-28T18:40:38.177Z,0.00
2018-11-28T18:43:07.529Z,0.00
2018-11-28T18:45:38.793Z,0.00
2018-11-28T18:48:07.465Z,0.00
2018-11-28T18:50:36.128Z,0.00
2018-11-28T18:53:04.844Z,0.00
2018-11-28T18:55:33.436Z,0.00
2018-11-28T18:58:02.184Z,0.00
2018-11-28T19:00:30.799Z,0.10
2018-11-28T19:02:59.464Z,0.00
2018-11-28T19:05:28.092Z,0.00
2018-11-28T19:07:56.751Z,0.00
2018-11-28T19:10:26.686Z,0.10
2018-11-28T19:12:54.564Z,0.10
2018-11-28T19:15:24.269Z,0.10
2018-11-28T19:17:53.309Z,0.10
2018-11-28T19:20:22.747Z,0.20
2018-11-28T19:22:52.176Z,0.20
2018-11-28T19:25:22.672Z,0.20
2018-11-28T19:27:51.551Z,0.20
2018-11-28T19:30:23.618Z,0.20
2018-11-28T19:32:52.260Z,0.20
2018-11-28T19:35:20.896Z,0.20
2018-11-28T19:37:49.591Z,0.20
2018-11-28T19:40:23.680Z,0.20
2018-11-28T19:42:52.337Z,0.20
2018-11-28T19:45:20.990Z,0.20
2018-11-28T19:47:49.710Z,0.20
2018-11-28T19:50:19.988Z,0.30
2018-11-28T19:52:48.604Z,0.30
2018-11-28T19:55:17.248Z,0.30
2018-11-28T19:57:45.851Z,0.30
2018-11-28T20:00:16.503Z,0.30
2018-11-28T20:02:45.623Z,0.30
2018-11-28T20:05:14.400Z,0.30
2018-11-28T20:07:45.260Z,0.40
2018-11-28T20:10:15.916Z,0.30
2018-11-28T20:12:44.611Z,0.40
2018-11-28T20:15:15.527Z,0.40
2018-11-28T20:17:44.144Z,0.40
2018-11-28T20:20:13.774Z,0.40
2018-11-28T20:22:42.504Z,0.40
2018-11-28T20:25:15.260Z,0.40
2018-11-28T20:27:45.982Z,0.40
2018-11-28T20:30:29.089Z,0.40
2018-11-28T20:32:57.951Z,0.30
2018-11-28T20:35:26.610Z,0.30
2018-11-28T20:37:55.253Z,0.30
2018-11-28T20:40:24.135Z,0.30
2018-11-28T20:42:53.714Z,0.40
2018-11-28T20:45:22.415Z,0.30
2018-11-28T20:47:51.051Z,0.30
2018-11-28T20:50:21.404Z,0.30
2018-11-28T20:52:54.971Z,0.30
2018-11-28T20:55:21.321Z,0.30
2018-11-28T20:57:49.968Z,0.40
2018-11-28T21:00:20.062Z,0.40
2018-11-28T21:02:48.758Z,0.40
2018-11-28T21:05:17.363Z,0.50
2018-11-28T21:07:46.051Z,0.50
2018-11-28T21:10:20.760Z,0.50
2018-11-28T21:12:58.182Z,0.50
2018-11-28T21:15:26.824Z,0.50
2018-11-28T21:17:55.495Z,0.50
2018-11-28T21:20:24.295Z,0.50
2018-11-28T21:22:55.215Z,0.50
2018-11-28T21:25:23.867Z,0.40
2018-11-28T21:27:52.872Z,0.30
2018-11-28T21:30:21.806Z,0.20
2018-11-28T21:32:51.528Z,0.30
2018-11-28T21:35:25.552Z,0.20
2018-11-28T21:37:54.251Z,0.20
2018-11-28T21:40:22.915Z,0.20
2018-11-28T21:42:51.908Z,0.10
2018-11-28T21:45:21.293Z,0.10
2018-11-28T21:47:50.247Z,0.10
2018-11-28T21:50:19.487Z,0.10
2018-11-28T21:52:48.346Z,0.10
2018-11-28T21:55:18.908Z,0.10
2018-11-28T21:57:47.547Z,0.10
2018-11-28T22:00:18.947Z,0.00
2018-11-28T22:02:47.589Z,0.00
2018-11-28T22:05:16.756Z,0.00
2018-11-28T22:07:45.434Z,0.00
2018-11-28T22:10:16.761Z,0.00
2018-11-28T22:12:45.524Z,0.00
2018-11-28T22:15:14.974Z,0.00
2018-11-28T22:17:48.383Z,0.00
2018-11-28T22:20:17.027Z,0.00
2018-11-28T22:22:45.697Z,-0.10
2018-11-28T22:25:24.593Z,-0.10
2018-11-28T22:27:53.291Z,-0.10
2018-11-28T22:30:23.718Z,-0.10
2018-11-28T22:32:52.532Z,-0.10
2018-11-28T22:35:21.181Z,-0.10
2018-11-28T22:37:49.801Z,-0.10
2018-11-28T22:40:20.516Z,-0.10
2018-11-28T22:42:49.188Z,-0.10
2018-11-28T22:45:18.899Z,-0.10
2018-11-28T22:47:47.584Z,-0.10
2018-11-28T22:50:16.239Z,-0.10
2018-11-28T22:52:44.930Z,-0.10
2018-11-28T22:55:15.139Z,-0.10
2018-11-28T22:57:43.851Z,-0.20
2018-11-28T23:00:22.573Z,-0.20
2018-11-28T23:02:53.303Z,-0.10
2018-11-28T23:05:23.303Z,-0.10
2018-11-28T23:07:51.931Z,-0.10
2018-11-28T23:10:20.537Z,-0.10
2018-11-28T23:12:49.167Z,-0.10
2018-11-28T23:15:17.864Z,-0.10
2018-11-28T23:17:46.518Z,-0.10
2018-11-28T23:20:15.156Z,-0.20
2018-11-28T23:22:43.779Z,-0.20
2018-11-28T23:25:12.796Z,-0.30
2018-11-28T23:27:41.500Z,-0.30
2018-11-28T23:30:13.655Z,-0.40
2018-11-28T23:32:42.304Z,-0.40
2018-11-28T23:35:11.583Z,-0.40
2018-11-28T23:37:41.133Z,-0.40
2018-11-28T23:40:23.158Z,-0.50
2018-11-28T23:42:52.310Z,-0.50
2018-11-28T23:45:21.003Z,-0.50
2018-11-28T23:47:49.904Z,-0.50
2018-11-28T23:50:20.523Z,-0.50
2018-11-28T23:52:49.440Z,-0.50
2018-11-28T23:55:23.568Z,-0.50
2018-11-28T23:57:52.540Z,-0.60
